Time;durP1;ratioP1;P1;durP2;ratioP2;P2;SDS_P1;SDS_P2;PMS_P1;PMS_P2;Temp;Humidity;BMP_temperature;BMP_pressure;BME280_temperature;BME280_humidity;BME280_pressure;Samples;Min_cycle;Max_cycle;Signal;HPM_P1;HPM_P2
2022/10/25 00:00:14;;;;;;;23.33;15.05;;;;;;;;;;5050493;28;20467;-65
2022/10/25 00:02:40;;;;;;;25.13;14.20;;;;;;;;;;5049877;28;20029;-65
2022/10/25 00:05:06;;;;;;;25.95;15.85;;;;;;;;;;5044474;28;20063;-65
2022/10/25 00:07:32;;;;;;;24.08;13.52;;;;;;;;;;5044167;28;20037;-65
2022/10/25 00:09:58;;;;;;;23.55;14.27;;;;;;;;;;5050003;28;20044;-65
2022/10/25 00:12:24;;;;;;;22.10;12.90;;;;;;;;;;5045244;28;20189;-65
2022/10/25 00:14:52;;;;;;;22.42;14.10;;;;;;;;;;5050410;28;20033;-65
2022/10/25 00:17:20;;;;;;;25.38;13.65;;;;;;;;;;5048478;28;20141;-65
2022/10/25 00:19:46;;;;;;;25.63;13.77;;;;;;;;;;5050031;28;20048;-65
2022/10/25 00:22:12;;;;;;;21.67;13.13;;;;;;;;;;5043922;28;20433;-66
2022/10/25 00:24:38;;;;;;;23.55;13.43;;;;;;;;;;5040177;28;20044;-65
2022/10/25 00:27:05;;;;;;;20.23;13.13;;;;;;;;;;5040390;28;20052;-64
2022/10/25 00:29:31;;;;;;;23.20;12.27;;;;;;;;;;5041684;28;20041;-65
2022/10/25 00:31:57;;;;;;;25.70;12.38;;;;;;;;;;5051058;28;20071;-65
2022/10/25 00:34:23;;;;;;;26.80;13.43;;;;;;;;;;5049462;28;20498;-65
2022/10/25 00:36:49;;;;;;;23.05;13.10;;;;;;;;;;5044772;28;20037;-65
2022/10/25 00:39:15;;;;;;;21.85;13.13;;;;;;;;;;5043538;28;20076;-64
2022/10/25 00:41:41;;;;;;;21.25;13.82;;;;;;;;;;5049122;28;20093;-65
2022/10/25 00:44:26;;;;;;;23.23;13.25;;;;;;;;;;5050541;28;20072;-65
2022/10/25 00:46:52;;;;;;;23.77;13.40;;;;;;;;;;5048395;28;20037;-64
2022/10/25 00:49:20;;;;;;;20.33;12.68;;;;;;;;;;5042109;28;20778;-64
2022/10/25 00:51:52;;;;;;;20.95;12.98;;;;;;;;;;5042982;28;20045;-65
2022/10/25 00:54:21;;;;;;;20.60;12.05;;;;;;;;;;5036623;28;20037;-65
2022/10/25 00:56:49;;;;;;;19.50;11.95;;;;;;;;;;5036738;28;20037;-65
2022/10/25 00:59:18;;;;;;;26.17;12.95;;;;;;;;;;5041088;28;20325;-65
2022/10/25 01:01:44;;;;;;;21.33;12.10;;;;;;;;;;5043860;28;20069;-65
2022/10/25 01:04:13;;;;;;;19.98;11.52;;;;;;;;;;5042416;28;20040;-65
2022/10/25 01:06:40;;;;;;;19.58;11.80;;;;;;;;;;5040414;28;20098;-65
2022/10/25 01:09:11;;;;;;;24.38;11.80;;;;;;;;;;5047940;28;20387;-65
2022/10/25 01:11:37;;;;;;;22.42;12.00;;;;;;;;;;5039652;28;20067;-65
2022/10/25 01:14:04;;;;;;;22.00;11.38;;;;;;;;;;5050150;28;20130;-65
2022/10/25 01:16:49;;;;;;;17.90;11.10;;;;;;;;;;5048956;28;20171;-65
2022/10/25 01:19:24;;;;;;;20.90;11.73;;;;;;;;;;5040509;28;20046;-65
2022/10/25 01:21:56;;;;;;;21.10;10.75;;;;;;;;;;5049279;28;20041;-65
2022/10/25 01:24:41;;;;;;;22.48;10.98;;;;;;;;;;5041693;28;20033;-65
2022/10/25 01:27:22;;;;;;;24.88;11.27;;;;;;;;;;5040194;28;20120;-65
2022/10/25 01:29:48;;;;;;;;;;;;;;;;;;5049559;28;20466;-65
2022/10/25 01:32:18;;;;;;;21.30;10.38;;;;;;;;;;5047432;28;19956;-65
2022/10/25 01:34:52;;;;;;;19.02;10.13;;;;;;;;;;5045013;28;20387;-65
2022/10/25 01:37:36;;;;;;;21.48;10.38;;;;;;;;;;5047597;28;20438;-65
2022/10/25 01:40:14;;;;;;;20.23;10.88;;;;;;;;;;5048985;28;20032;-65
2022/10/25 01:43:01;;;;;;;18.83;9.68;;;;;;;;;;5049173;28;20108;-65
2022/10/25 01:45:29;;;;;;;18.02;9.98;;;;;;;;;;5049364;28;20107;-65
2022/10/25 01:48:13;;;;;;;20.13;9.27;;;;;;;;;;5048508;28;20044;-65
2022/10/25 01:50:41;;;;;;;18.60;10.25;;;;;;;;;;5042764;28;20037;-65
2022/10/25 01:53:07;;;;;;;18.77;9.68;;;;;;;;;;5054373;28;20041;-65
2022/10/25 01:55:36;;;;;;;16.80;10.05;;;;;;;;;;5052621;28;20143;-65
2022/10/25 01:58:02;;;;;;;16.92;9.70;;;;;;;;;;5050016;28;20120;-65
2022/10/25 02:00:31;;;;;;;18.67;9.63;;;;;;;;;;5048565;28;20135;-64
2022/10/25 02:02:57;;;;;;;17.35;8.82;;;;;;;;;;5052786;28;20510;-65
2022/10/25 02:05:23;;;;;;;20.00;8.73;;;;;;;;;;5049592;28;20032;-65
2022/10/25 02:07:54;;;;;;;17.58;8.93;;;;;;;;;;5053906;28;20494;-65
2022/10/25 02:10:24;;;;;;;16.52;8.80;;;;;;;;;;5039176;28;20045;-65
2022/10/25 02:13:00;;;;;;;17.20;9.20;;;;;;;;;;5036932;28;20033;-65
2022/10/25 02:15:34;;;;;;;18.67;9.40;;;;;;;;;;5048056;28;20094;-65
2022/10/25 02:18:01;;;;;;;18.42;9.43;;;;;;;;;;5047192;28;20033;-65
2022/10/25 02:20:29;;;;;;;18.65;9.07;;;;;;;;;;5050917;28;20044;-65
2022/10/25 02:22:57;;;;;;;17.65;9.15;;;;;;;;;;5044285;28;20505;-65
2022/10/25 02:25:23;;;;;;;16.27;9.18;;;;;;;;;;5050918;28;20068;-65
2022/10/25 02:27:51;;;;;;;16.33;9.48;;;;;;;;;;5052410;28;20044;-64
2022/10/25 02:30:17;;;;;;;17.83;9.90;;;;;;;;;;5047906;28;20037;-65
2022/10/25 02:32:44;;;;;;;19.55;10.00;;;;;;;;;;5046516;28;20041;-65
2022/10/25 02:35:13;;;;;;;18.52;10.23;;;;;;;;;;5052511;28;20049;-65
2022/10/25 02:37:39;;;;;;;17.88;10.38;;;;;;;;;;5048357;28;20549;-64
2022/10/25 02:40:05;;;;;;;20.13;10.95;;;;;;;;;;5050821;28;20045;-65
2022/10/25 02:42:31;;;;;;;20.48;11.75;;;;;;;;;;5044178;28;20033;-65
2022/10/25 02:44:57;;;;;;;20.15;12.30;;;;;;;;;;5043671;28;20060;-65
2022/10/25 02:47:23;;;;;;;24.55;12.35;;;;;;;;;;5048623;28;20079;-65
2022/10/25 02:49:49;;;;;;;20.20;12.02;;;;;;;;;;5037520;28;20040;-65
2022/10/25 02:52:15;;;;;;;22.67;11.75;;;;;;;;;;5050059;28;20048;-66
2022/10/25 02:54:41;;;;;;;20.63;12.45;;;;;;;;;;5050748;28;20047;-65
2022/10/25 02:57:07;;;;;;;23.00;11.82;;;;;;;;;;5043567;28;20495;-65
2022/10/25 02:59:33;;;;;;;23.00;11.90;;;;;;;;;;5051555;28;20047;-65
2022/10/25 03:01:59;;;;;;;21.10;12.13;;;;;;;;;;5044082;28;20040;-65
2022/10/25 03:04:25;;;;;;;20.55;11.32;;;;;;;;;;5047314;28;20450;-65
2022/10/25 03:06:51;;;;;;;21.35;12.45;;;;;;;;;;5050429;28;20041;-65
2022/10/25 03:09:17;;;;;;;20.90;12.43;;;;;;;;;;5049902;28;20043;-65
2022/10/25 03:11:43;;;;;;;23.15;12.45;;;;;;;;;;5051738;28;20449;-66
2022/10/25 03:14:09;;;;;;;22.27;12.07;;;;;;;;;;5048841;28;20098;-65
2022/10/25 03:16:35;;;;;;;19.85;11.43;;;;;;;;;;5047125;28;20048;-66
2022/10/25 03:19:01;;;;;;;22.55;11.55;;;;;;;;;;5047421;28;20032;-65
2022/10/25 03:21:27;;;;;;;18.73;10.88;;;;;;;;;;5040530;28;20128;-65
2022/10/25 03:23:53;;;;;;;22.15;11.77;;;;;;;;;;5048022;28;20329;-65
2022/10/25 03:26:19;;;;;;;21.33;11.68;;;;;;;;;;5050625;28;20045;-65
2022/10/25 03:28:45;;;;;;;22.30;11.77;;;;;;;;;;5041894;28;20041;-66
2022/10/25 03:31:12;;;;;;;24.00;11.80;;;;;;;;;;5040810;28;20045;-65
2022/10/25 03:33:38;;;;;;;24.08;11.80;;;;;;;;;;5051734;28;20047;-65
2022/10/25 03:36:04;;;;;;;19.17;11.88;;;;;;;;;;5051643;28;20037;-65
2022/10/25 03:38:30;;;;;;;23.80;11.27;;;;;;;;;;5042521;28;20037;-65
2022/10/25 03:40:56;;;;;;;21.48;10.63;;;;;;;;;;5043439;28;20029;-65
2022/10/25 03:43:22;;;;;;;19.58;11.32;;;;;;;;;;5040283;28;20063;-65
2022/10/25 03:45:48;;;;;;;20.88;10.63;;;;;;;;;;5047098;28;20090;-66
2022/10/25 03:48:15;;;;;;;23.92;11.27;;;;;;;;;;5044082;28;20033;-65
2022/10/25 03:50:41;;;;;;;20.17;10.95;;;;;;;;;;5047807;28;20048;-65
2022/10/25 03:53:07;;;;;;;20.52;12.00;;;;;;;;;;5042901;28;20033;-65
2022/10/25 03:55:34;;;;;;;24.40;12.13;;;;;;;;;;5034709;28;20064;-65
2022/10/25 03:58:00;;;;;;;21.05;11.45;;;;;;;;;;5045831;28;20111;-65
2022/10/25 04:00:26;;;;;;;20.80;11.05;;;;;;;;;;5046378;28;20048;-65
2022/10/25 04:02:59;;;;;;;23.05;11.40;;;;;;;;;;5045662;28;20029;-65
2022/10/25 04:05:26;;;;;;;20.00;10.88;;;;;;;;;;5051120;28;20052;-65
2022/10/25 04:07:52;;;;;;;20.20;11.20;;;;;;;;;;5050526;28;20037;-66
2022/10/25 04:10:19;;;;;;;21.33;11.65;;;;;;;;;;5038804;28;20080;-66
2022/10/25 04:12:45;;;;;;;18.70;11.00;;;;;;;;;;5049896;28;20159;-66
2022/10/25 04:15:12;;;;;;;20.50;11.23;;;;;;;;;;5035064;28;20077;-65
2022/10/25 04:17:38;;;;;;;21.13;11.40;;;;;;;;;;5040091;28;20502;-66
2022/10/25 04:20:04;;;;;;;19.77;11.30;;;;;;;;;;5033840;28;20124;-66
2022/10/25 04:22:30;;;;;;;21.65;11.02;;;;;;;;;;5042839;28;20040;-65
2022/10/25 04:24:56;;;;;;;23.67;11.52;;;;;;;;;;5048060;28;20029;-66
2022/10/25 04:27:22;;;;;;;27.85;12.25;;;;;;;;;;5041012;28;20059;-66
2022/10/25 04:29:48;;;;;;;19.77;11.07;;;;;;;;;;5034390;28;20041;-66
2022/10/25 04:32:14;;;;;;;21.13;11.05;;;;;;;;;;5049236;28;20077;-66
2022/10/25 04:34:40;;;;;;;20.08;11.20;;;;;;;;;;5048499;28;20047;-66
2022/10/25 04:37:06;;;;;;;24.13;11.40;;;;;;;;;;5036617;28;20053;-66
2022/10/25 04:39:32;;;;;;;21.63;11.32;;;;;;;;;;5040990;28;20069;-66
2022/10/25 04:41:58;;;;;;;20.95;10.70;;;;;;;;;;5049475;28;20393;-66
2022/10/25 04:44:24;;;;;;;17.92;10.98;;;;;;;;;;5039217;28;20041;-66
2022/10/25 04:46:50;;;;;;;23.35;11.55;;;;;;;;;;5038535;28;20048;-66
2022/10/25 04:49:17;;;;;;;22.48;11.07;;;;;;;;;;5041458;28;20051;-66
2022/10/25 04:51:43;;;;;;;22.35;11.45;;;;;;;;;;5047035;28;20083;-66
2022/10/25 04:54:10;;;;;;;25.95;11.55;;;;;;;;;;5043720;28;20045;-66
2022/10/25 04:56:36;;;;;;;18.25;10.23;;;;;;;;;;5049027;28;20040;-66
2022/10/25 04:59:02;;;;;;;21.90;11.27;;;;;;;;;;5037216;28;20037;-66
2022/10/25 05:01:28;;;;;;;25.80;12.23;;;;;;;;;;5048467;28;20064;-66
2022/10/25 05:03:54;;;;;;;25.42;10.55;;;;;;;;;;5047426;28;20063;-66
2022/10/25 05:06:22;;;;;;;23.30;10.45;;;;;;;;;;5046455;28;20048;-66
2022/10/25 05:08:49;;;;;;;24.60;11.75;;;;;;;;;;5040253;28;20046;-66
2022/10/25 05:11:16;;;;;;;18.90;11.05;;;;;;;;;;5044420;28;20045;-66
2022/10/25 05:13:42;;;;;;;29.00;11.20;;;;;;;;;;5042289;28;20037;-66
2022/10/25 05:16:11;;;;;;;23.23;10.55;;;;;;;;;;5036096;28;20521;-66
2022/10/25 05:18:37;;;;;;;24.25;11.18;;;;;;;;;;5033391;28;20083;-66
2022/10/25 05:21:05;;;;;;;22.05;10.88;;;;;;;;;;5035239;28;20052;-66
2022/10/25 05:23:32;;;;;;;24.85;11.18;;;;;;;;;;5040047;28;20403;-66
2022/10/25 05:26:01;;;;;;;21.85;11.23;;;;;;;;;;5046762;28;20037;-66
2022/10/25 05:28:27;;;;;;;25.77;10.93;;;;;;;;;;5045930;28;20044;-66
2022/10/25 05:30:53;;;;;;;25.15;10.95;;;;;;;;;;5052320;28;20033;-66
2022/10/25 05:33:19;;;;;;;20.83;10.45;;;;;;;;;;5045862;28;20036;-66
2022/10/25 05:35:45;;;;;;;26.70;11.45;;;;;;;;;;5045759;28;20037;-66
2022/10/25 05:38:11;;;;;;;22.02;10.85;;;;;;;;;;5042891;28;20483;-66
2022/10/25 05:40:37;;;;;;;25.38;11.45;;;;;;;;;;5046601;28;20064;-66
2022/10/25 05:43:03;;;;;;;21.02;10.40;;;;;;;;;;5049351;28;20041;-66
2022/10/25 05:45:29;;;;;;;24.70;11.32;;;;;;;;;;5047081;28;20047;-66
2022/10/25 05:47:55;;;;;;;19.10;10.05;;;;;;;;;;5045690;28;20099;-65
2022/10/25 05:50:21;;;;;;;29.80;9.93;;;;;;;;;;5038682;28;20040;-66
2022/10/25 05:52:47;;;;;;;20.45;9.95;;;;;;;;;;5040540;28;20622;-66
2022/10/25 05:55:13;;;;;;;20.50;10.05;;;;;;;;;;5042954;28;20039;-66
2022/10/25 05:57:39;;;;;;;17.92;9.50;;;;;;;;;;5050606;28;20045;-66
2022/10/25 06:00:06;;;;;;;22.02;8.85;;;;;;;;;;5048139;28;20090;-65
2022/10/25 06:02:32;;;;;;;13.45;8.15;;;;;;;;;;5048190;28;20038;-66
2022/10/25 06:04:58;;;;;;;20.00;7.97;;;;;;;;;;5047559;28;20037;-66
2022/10/25 06:07:24;;;;;;;19.15;7.57;;;;;;;;;;5047126;28;20132;-66
2022/10/25 06:09:50;;;;;;;18.70;8.13;;;;;;;;;;5044625;28;20056;-66
2022/10/25 06:12:16;;;;;;;21.92;7.97;;;;;;;;;;5042966;28;20275;-65
2022/10/25 06:14:42;;;;;;;17.60;8.30;;;;;;;;;;5047717;28;20044;-66
2022/10/25 06:17:08;;;;;;;15.57;7.93;;;;;;;;;;5047791;28;20045;-66
2022/10/25 06:19:34;;;;;;;22.17;8.48;;;;;;;;;;5041861;28;20111;-66
2022/10/25 06:22:00;;;;;;;20.13;7.65;;;;;;;;;;5045511;28;20044;-66
2022/10/25 06:24:26;;;;;;;20.13;8.27;;;;;;;;;;5042004;28;20045;-66
2022/10/25 06:26:52;;;;;;;18.35;8.13;;;;;;;;;;5041657;28;20033;-66
2022/10/25 06:29:18;;;;;;;17.83;8.25;;;;;;;;;;5043253;28;20044;-66
2022/10/25 06:31:44;;;;;;;19.17;7.93;;;;;;;;;;5041351;28;20124;-65
2022/10/25 06:34:10;;;;;;;25.88;8.77;;;;;;;;;;5042772;28;20044;-66
2022/10/25 06:36:36;;;;;;;19.75;8.07;;;;;;;;;;5038106;28;20384;-66
2022/10/25 06:39:02;;;;;;;20.67;8.48;;;;;;;;;;5041135;28;20036;-65
2022/10/25 06:41:30;;;;;;;17.67;7.55;;;;;;;;;;5044932;28;20119;-66
2022/10/25 06:43:58;;;;;;;18.10;7.82;;;;;;;;;;5046867;28;20041;-65
2022/10/25 06:46:25;;;;;;;17.73;8.48;;;;;;;;;;5050154;28;20072;-66
2022/10/25 06:48:52;;;;;;;22.70;8.70;;;;;;;;;;5051951;28;20041;-66
2022/10/25 06:51:19;;;;;;;19.83;8.75;;;;;;;;;;5047006;28;20159;-66
2022/10/25 06:53:45;;;;;;;22.13;9.05;;;;;;;;;;5038367;28;20091;-66
2022/10/25 06:56:12;;;;;;;24.35;7.97;;;;;;;;;;5049457;28;20040;-66
2022/10/25 06:58:38;;;;;;;23.65;8.93;;;;;;;;;;5045402;28;20030;-66
2022/10/25 07:01:05;;;;;;;25.45;9.35;;;;;;;;;;5047374;28;20052;-66
2022/10/25 07:03:35;;;;;;;23.45;8.73;;;;;;;;;;5050186;28;20397;-66
2022/10/25 07:06:01;;;;;;;25.15;9.75;;;;;;;;;;5043472;28;20359;-66
2022/10/25 07:08:27;;;;;;;28.52;9.93;;;;;;;;;;5045847;28;20052;-66
2022/10/25 07:10:54;;;;;;;19.20;8.73;;;;;;;;;;5049495;28;20041;-66
2022/10/25 07:13:20;;;;;;;26.58;8.85;;;;;;;;;;5042939;28;20111;-66
2022/10/25 07:15:46;;;;;;;21.83;8.77;;;;;;;;;;5046144;28;20495;-66
2022/10/25 07:18:12;;;;;;;24.92;8.95;;;;;;;;;;5036318;28;20076;-66
2022/10/25 07:20:38;;;;;;;20.38;7.97;;;;;;;;;;5037460;28;20033;-66
2022/10/25 07:23:04;;;;;;;22.45;9.23;;;;;;;;;;5039186;28;20034;-65
2022/10/25 07:25:30;;;;;;;24.35;8.50;;;;;;;;;;5044069;28;20033;-66
2022/10/25 07:27:57;;;;;;;22.90;8.90;;;;;;;;;;5043342;28;20042;-66
2022/10/25 07:30:23;;;;;;;23.48;8.75;;;;;;;;;;5041885;28;20128;-66
2022/10/25 07:32:49;;;;;;;18.35;8.25;;;;;;;;;;5046365;28;20498;-66
2022/10/25 07:35:15;;;;;;;20.90;9.20;;;;;;;;;;5049639;28;20037;-66
2022/10/25 07:37:41;;;;;;;21.92;8.50;;;;;;;;;;5050006;28;20499;-66
2022/10/25 07:40:07;;;;;;;20.83;8.73;;;;;;;;;;5040480;28;20033;-66
2022/10/25 07:42:33;;;;;;;18.88;7.95;;;;;;;;;;5047416;28;20037;-66
2022/10/25 07:44:59;;;;;;;20.75;8.60;;;;;;;;;;5050483;28;20110;-66
2022/10/25 07:47:25;;;;;;;25.33;8.32;;;;;;;;;;5046740;28;20124;-66
2022/10/25 07:49:51;;;;;;;22.13;9.05;;;;;;;;;;5034445;28;20037;-66
2022/10/25 07:52:18;;;;;;;17.83;8.45;;;;;;;;;;5041411;28;20083;-66
2022/10/25 07:54:44;;;;;;;22.70;9.48;;;;;;;;;;5042304;28;20102;-66
2022/10/25 07:57:10;;;;;;;22.90;9.38;;;;;;;;;;5048352;28;20041;-66
2022/10/25 07:59:36;;;;;;;19.50;8.43;;;;;;;;;;5029269;28;20041;-66
2022/10/25 08:02:02;;;;;;;24.92;8.40;;;;;;;;;;5045549;28;20401;-66
2022/10/25 08:04:31;;;;;;;23.90;9.52;;;;;;;;;;5033996;28;20064;-66
2022/10/25 08:07:00;;;;;;;22.02;9.10;;;;;;;;;;5043497;28;20076;-66
2022/10/25 08:09:27;;;;;;;25.13;9.68;;;;;;;;;;5039638;28;20037;-66
2022/10/25 08:11:53;;;;;;;21.77;9.98;;;;;;;;;;5046350;28;20384;-65
2022/10/25 08:14:19;;;;;;;23.92;9.68;;;;;;;;;;5048819;28;20045;-66
2022/10/25 08:16:45;;;;;;;21.08;9.73;;;;;;;;;;5040857;28;20042;-66
2022/10/25 08:19:11;;;;;;;24.35;9.38;;;;;;;;;;5041834;28;20043;-66
2022/10/25 08:21:37;;;;;;;27.13;9.43;;;;;;;;;;5046173;28;20076;-66
2022/10/25 08:24:03;;;;;;;20.90;9.95;;;;;;;;;;5049293;28;20028;-66
2022/10/25 08:26:29;;;;;;;22.88;9.90;;;;;;;;;;5043900;28;20426;-65
2022/10/25 08:28:55;;;;;;;20.50;10.45;;;;;;;;;;5042973;28;20041;-65
2022/10/25 08:31:21;;;;;;;20.85;10.98;;;;;;;;;;5037600;28;20072;-65
2022/10/25 08:33:47;;;;;;;26.70;11.57;;;;;;;;;;5040396;28;20045;-65
2022/10/25 08:36:13;;;;;;;30.77;11.75;;;;;;;;;;5039656;28;20049;-65
2022/10/25 08:38:39;;;;;;;18.65;9.63;;;;;;;;;;5039255;28;20525;-65
2022/10/25 08:41:10;;;;;;;22.33;10.27;;;;;;;;;;5045430;28;20041;-65
2022/10/25 08:43:45;;;;;;;24.02;10.73;;;;;;;;;;5038330;28;20483;-65
2022/10/25 08:46:14;;;;;;;19.88;9.75;;;;;;;;;;5039828;28;20040;-65
2022/10/25 08:48:42;;;;;;;23.52;11.43;;;;;;;;;;5049385;28;20047;-65
2022/10/25 08:51:13;;;;;;;26.25;11.10;;;;;;;;;;5046346;28;20041;-65
2022/10/25 08:53:42;;;;;;;18.38;10.40;;;;;;;;;;5048627;28;20032;-65
2022/10/25 08:56:11;;;;;;;17.90;10.35;;;;;;;;;;5042498;28;20044;-65
2022/10/25 08:58:42;;;;;;;21.25;10.43;;;;;;;;;;5044000;28;20390;-65
2022/10/25 09:01:14;;;;;;;21.50;9.85;;;;;;;;;;5039784;28;20048;-65
2022/10/25 09:03:40;;;;;;;19.52;9.85;;;;;;;;;;5051496;28;20029;-65
2022/10/25 09:06:25;;;;;;;20.80;9.85;;;;;;;;;;5051647;28;20041;-65
2022/10/25 09:08:51;;;;;;;20.73;9.95;;;;;;;;;;5054599;28;20538;-65
2022/10/25 09:11:22;;;;;;;23.70;9.93;;;;;;;;;;5052064;28;20044;-65
2022/10/25 09:13:59;;;;;;;20.52;9.38;;;;;;;;;;5054105;28;20037;-65
2022/10/25 09:16:34;;;;;;;21.27;9.27;;;;;;;;;;5044111;28;20046;-65
2022/10/25 09:19:01;;;;;;;19.15;9.25;;;;;;;;;;5049024;28;20507;-65
2022/10/25 09:21:34;;;;;;;14.30;8.32;;;;;;;;;;5051505;28;20029;-65
2022/10/25 09:24:18;;;;;;;16.45;8.00;;;;;;;;;;5043782;28;20044;-65
2022/10/25 09:26:53;;;;;;;19.05;8.07;;;;;;;;;;5051538;28;20041;-66
2022/10/25 09:29:23;;;;;;;13.85;6.90;;;;;;;;;;5076685;22;20047;-70
2022/10/25 09:31:51;;;;;;;14.63;7.60;;;;;;;;;;5070946;28;20119;-69
2022/10/25 09:34:19;;;;;;;16.48;7.55;;;;;;;;;;5074379;28;20036;-69
2022/10/25 09:36:47;;;;;;;17.23;7.95;;;;;;;;;;5072963;28;20037;-69
2022/10/25 09:39:19;;;;;;;20.48;8.13;;;;;;;;;;5070796;28;20040;-70
2022/10/25 09:41:49;;;;;;;15.15;6.65;;;;;;;;;;5073465;28;20037;-69
2022/10/25 09:44:19;;;;;;;15.73;6.50;;;;;;;;;;5071612;28;20040;-69
2022/10/25 09:46:48;;;;;;;16.70;7.15;;;;;;;;;;5064612;28;20052;-69
2022/10/25 09:49:14;;;;;;;14.05;6.72;;;;;;;;;;5070594;28;20040;-69
2022/10/25 09:51:53;;;;;;;13.95;6.13;;;;;;;;;;5074691;28;20452;-69
2022/10/25 09:54:26;;;;;;;14.43;5.95;;;;;;;;;;5073074;28;20056;-69
2022/10/25 09:56:52;;;;;;;12.75;5.68;;;;;;;;;;5070973;28;20144;-69
2022/10/25 09:59:18;;;;;;;14.18;5.88;;;;;;;;;;5073506;28;20047;-70
2022/10/25 10:01:44;;;;;;;13.98;5.68;;;;;;;;;;5074127;28;20398;-69
2022/10/25 10:04:29;;;;;;;12.95;5.40;;;;;;;;;;5072850;28;20047;-69
2022/10/25 10:06:57;;;;;;;13.63;5.65;;;;;;;;;;5070822;28;20425;-69
2022/10/25 10:09:24;;;;;;;12.60;5.03;;;;;;;;;;5073077;28;20032;-69
2022/10/25 10:11:52;;;;;;;16.95;4.90;;;;;;;;;;5068873;28;20040;-69
2022/10/25 10:14:24;;;;;;;12.75;5.25;;;;;;;;;;5067460;28;20771;-69
2022/10/25 10:16:52;;;;;;;11.48;4.55;;;;;;;;;;5073275;28;20032;-69
2022/10/25 10:19:20;;;;;;;12.30;4.97;;;;;;;;;;5071863;28;20430;-69
2022/10/25 10:21:51;;;;;;;10.75;4.40;;;;;;;;;;5071864;28;20037;-69
2022/10/25 10:24:20;;;;;;;7.43;4.15;;;;;;;;;;5073078;28;20486;-69
2022/10/25 10:26:50;;;;;;;12.75;4.53;;;;;;;;;;5066795;28;20048;-68
2022/10/25 10:29:19;;;;;;;10.55;4.55;;;;;;;;;;5069794;28;20044;-67
2022/10/25 10:31:57;;;;;;;12.82;3.83;;;;;;;;;;5063197;28;20494;-69
2022/10/25 10:34:43;;;;;;;8.50;3.85;;;;;;;;;;5065834;28;20119;-70
2022/10/25 10:37:12;;;;;;;8.43;3.80;;;;;;;;;;5067138;28;20398;-70
2022/10/25 10:39:51;;;;;;;9.57;3.95;;;;;;;;;;5069792;28;20040;-69
2022/10/25 10:42:19;;;;;;;11.43;3.75;;;;;;;;;;5068513;28;20048;-70
2022/10/25 10:45:01;;;;;;;10.70;3.67;;;;;;;;;;5073202;28;20062;-70
2022/10/25 10:47:29;;;;;;;10.13;3.95;;;;;;;;;;5069612;28;20521;-70
2022/10/25 10:49:55;;;;;;;9.23;3.38;;;;;;;;;;5069826;28;20550;-69
2022/10/25 10:52:51;;;;;;;9.10;3.85;;;;;;;;;;5061567;28;20068;-70
2022/10/25 10:55:19;;;;;;;9.50;3.83;;;;;;;;;;5060351;28;20522;-69
2022/10/25 10:57:45;;;;;;;9.00;3.80;;;;;;;;;;5068485;28;20036;-71
2022/10/25 11:00:25;;;;;;;11.73;3.78;;;;;;;;;;5070320;28;20486;-70
2022/10/25 11:02:51;;;;;;;7.57;3.35;;;;;;;;;;5068105;28;20036;-70
2022/10/25 11:05:36;;;;;;;8.30;3.20;;;;;;;;;;5067617;28;20062;-71
2022/10/25 11:08:02;;;;;;;10.27;3.53;;;;;;;;;;5063877;28;20072;-70
2022/10/25 11:10:29;;;;;;;9.27;3.70;;;;;;;;;;5064822;28;20083;-70
2022/10/25 11:13:12;;;;;;;9.40;3.60;;;;;;;;;;5068497;28;20045;-69
2022/10/25 11:15:58;;;;;;;11.35;3.70;;;;;;;;;;5069496;28;20067;-69
2022/10/25 11:18:33;;;;;;;9.88;3.38;;;;;;;;;;5063191;28;20052;-69
2022/10/25 11:21:04;;;;;;;10.05;4.70;;;;;;;;;;5068756;28;20406;-69
2022/10/25 11:23:31;;;;;;;;;;;;;;;;;;5071464;28;20032;-70
2022/10/25 11:26:14;;;;;;;9.55;3.50;;;;;;;;;;5072282;28;20336;-69
2022/10/25 11:28:43;;;;;;;9.45;3.28;;;;;;;;;;5070884;28;20032;-70
2022/10/25 11:31:28;;;;;;;9.20;3.50;;;;;;;;;;5071558;28;20028;-70
2022/10/25 11:34:09;;;;;;;8.70;3.30;;;;;;;;;;5072304;28;20036;-70
2022/10/25 11:36:35;;;;;;;8.15;3.13;;;;;;;;;;5072277;28;20043;-70
2022/10/25 11:39:19;;;;;;;10.85;3.35;;;;;;;;;;5070213;28;20036;-70
2022/10/25 11:41:47;;;;;;;12.10;3.47;;;;;;;;;;5068879;28;20470;-70
2022/10/25 11:44:13;;;;;;;9.98;2.95;;;;;;;;;;5072063;28;20068;-70
2022/10/25 11:46:51;;;;;;;10.55;3.13;;;;;;;;;;5072338;28;20098;-70
2022/10/25 11:49:24;;;;;;;6.60;2.72;;;;;;;;;;5069067;28;20045;-70
2022/10/25 11:51:50;;;;;;;11.32;3.20;;;;;;;;;;5066222;28;20040;-70
2022/10/25 11:54:48;;;;;;;8.25;3.00;;;;;;;;;;5079802;28;20062;-70
2022/10/25 11:57:33;;;;;;;8.57;2.95;;;;;;;;;;5080113;28;20139;-70
2022/10/25 12:00:14;;;;;;;7.32;2.88;;;;;;;;;;5070967;28;20048;-70
2022/10/25 12:02:51;;;;;;;9.80;2.92;;;;;;;;;;5065253;28;20040;-70
2022/10/25 12:05:26;;;;;;;5.93;3.00;;;;;;;;;;5072261;28;20041;-70
2022/10/25 12:07:58;;;;;;;9.77;3.20;;;;;;;;;;5081565;28;20088;-70
2022/10/25 12:10:32;;;;;;;10.25;2.80;;;;;;;;;;5070154;28;20033;-70
2022/10/25 12:13:00;;;;;;;8.10;2.88;;;;;;;;;;5071825;28;20036;-70
2022/10/25 12:15:47;;;;;;;8.45;2.60;;;;;;;;;;5072049;28;20033;-70
2022/10/25 12:18:18;;;;;;;6.10;2.90;;;;;;;;;;5069413;28;20115;-70
2022/10/25 12:20:45;;;;;;;7.40;2.60;;;;;;;;;;5060648;28;20037;-70
2022/10/25 12:23:13;;;;;;;12.50;2.97;;;;;;;;;;5062358;28;20037;-70
2022/10/25 12:26:05;;;;;;;6.10;2.70;;;;;;;;;;5070284;28;20498;-71
2022/10/25 12:28:31;;;;;;;6.53;2.85;;;;;;;;;;5062463;28;20079;-70
2022/10/25 12:31:00;;;;;;;7.82;2.75;;;;;;;;;;5069150;28;20032;-71
2022/10/25 12:33:49;;;;;;;7.38;2.55;;;;;;;;;;5069992;28;20040;-71
2022/10/25 12:36:35;;;;;;;7.50;2.15;;;;;;;;;;5065063;28;20059;-70
2022/10/25 12:39:25;;;;;;;8.70;2.95;;;;;;;;;;5062206;28;20676;-70
2022/10/25 12:41:57;;;;;;;8.57;2.83;;;;;;;;;;5063195;28;20028;-71
2022/10/25 12:44:26;;;;;;;6.97;2.95;;;;;;;;;;5071237;28;20040;-69
2022/10/25 12:46:58;;;;;;;7.20;3.00;;;;;;;;;;5068992;28;20048;-71
2022/10/25 12:49:27;;;;;;;8.23;3.20;;;;;;;;;;5067876;28;20038;-70
2022/10/25 12:52:17;;;;;;;7.60;3.05;;;;;;;;;;5063771;28;20051;-70
2022/10/25 12:55:03;;;;;;;7.13;2.65;;;;;;;;;;5057313;28;20123;-70
2022/10/25 12:57:35;;;;;;;9.50;3.30;;;;;;;;;;5054107;28;20087;-69
2022/10/25 13:00:09;;;;;;;6.90;3.97;;;;;;;;;;5065420;28;20067;-70
2022/10/25 13:02:48;;;;;;;7.25;3.10;;;;;;;;;;5062257;28;20072;-70
2022/10/25 13:05:27;;;;;;;11.23;3.97;;;;;;;;;;5070484;28;20052;-70
2022/10/25 13:07:55;;;;;;;9.73;3.65;;;;;;;;;;5063340;28;20036;-70
2022/10/25 13:10:23;;;;;;;9.43;3.35;;;;;;;;;;5067913;28;20037;-70
2022/10/25 13:13:02;;;;;;;9.10;2.80;;;;;;;;;;5069357;28;20517;-69
2022/10/25 13:15:57;;;;;;;7.07;2.75;;;;;;;;;;5070584;28;20036;-69
2022/10/25 13:18:25;;;;;;;7.10;2.60;;;;;;;;;;5059692;28;20486;-71
2022/10/25 13:20:51;;;;;;;7.15;2.67;;;;;;;;;;5069949;28;20047;-71
2022/10/25 13:23:36;;;;;;;8.85;3.00;;;;;;;;;;5070543;28;20572;-71
2022/10/25 13:26:05;;;;;;;7.05;2.97;;;;;;;;;;5069380;28;20146;-70
2022/10/25 13:28:31;;;;;;;12.55;3.70;;;;;;;;;;5069249;28;20032;-71
2022/10/25 13:31:16;;;;;;;6.30;2.95;;;;;;;;;;5070442;28;20040;-71
2022/10/25 13:33:42;;;;;;;10.80;3.72;;;;;;;;;;5071154;28;20055;-71
2022/10/25 13:36:08;;;;;;;9.43;3.40;;;;;;;;;;5067455;28;20064;-71
2022/10/25 13:38:35;;;;;;;8.38;3.33;;;;;;;;;;5064216;28;20118;-71
2022/10/25 13:41:11;;;;;;;11.48;3.33;;;;;;;;;;5066936;28;20043;-71
2022/10/25 13:43:55;;;;;;;10.40;3.40;;;;;;;;;;5061710;28;20035;-71
2022/10/25 13:46:24;;;;;;;8.23;3.20;;;;;;;;;;5065565;28;20037;-71
2022/10/25 13:48:53;;;;;;;13.32;3.40;;;;;;;;;;5071740;28;20090;-70
2022/10/25 13:51:20;;;;;;;7.47;3.20;;;;;;;;;;5073742;28;20047;-71
2022/10/25 13:53:48;;;;;;;11.60;4.28;;;;;;;;;;5070218;28;20170;-71
2022/10/25 13:56:16;;;;;;;10.00;3.38;;;;;;;;;;5048263;28;20033;-69
2022/10/25 13:58:52;;;;;;;9.85;3.72;;;;;;;;;;5074186;28;20048;-70
2022/10/25 14:01:19;;;;;;;9.45;3.97;;;;;;;;;;5072522;28;20045;-70
2022/10/25 14:04:05;;;;;;;7.25;3.25;;;;;;;;;;5071515;28;20036;-70
2022/10/25 14:06:31;;;;;;;8.15;3.60;;;;;;;;;;5073542;28;20047;-70
2022/10/25 14:09:16;;;;;;;7.57;3.13;;;;;;;;;;5071164;28;20086;-69
2022/10/25 14:11:45;;;;;;;6.95;3.00;;;;;;;;;;5070781;28;20037;-71
2022/10/25 14:14:24;;;;;;;8.18;3.00;;;;;;;;;;5072491;28;20123;-71
2022/10/25 14:16:54;;;;;;;4.88;2.75;;;;;;;;;;5070773;28;20036;-71
2022/10/25 14:19:21;;;;;;;8.80;3.05;;;;;;;;;;5063378;28;20048;-70
2022/10/25 14:21:49;;;;;;;9.57;3.28;;;;;;;;;;5073001;28;20032;-71
2022/10/25 14:24:16;;;;;;;7.75;3.20;;;;;;;;;;5072196;28;20408;-70
2022/10/25 14:26:53;;;;;;;8.85;3.55;;;;;;;;;;5072662;28;20064;-70
2022/10/25 14:29:21;;;;;;;8.32;3.42;;;;;;;;;;5071084;28;20394;-70
2022/10/25 14:31:47;;;;;;;8.55;3.50;;;;;;;;;;5073673;28;20043;-70
2022/10/25 14:34:18;;;;;;;7.55;3.50;;;;;;;;;;5074086;28;20059;-70
2022/10/25 14:36:47;;;;;;;10.27;3.80;;;;;;;;;;5071086;28;20044;-70
2022/10/25 14:39:22;;;;;;;8.55;3.80;;;;;;;;;;5072171;28;20525;-70
2022/10/25 14:41:49;;;;;;;8.38;3.88;;;;;;;;;;5073802;28;20273;-70